Terminal Aerodrome Forecast
Issued by NWS

Home | Current Version | Previous Version | Text Only | Print | Product List | Glossary On
Versions: 1 2 3 4 5 6 7 8 9 10 11 12 13 14 15 16 17 18 19 20 21 22 23 24 25 26 27 28 29 30 31 32 33 34 35 36 37 38
000
FTUS43 KDTX 281738
TAFPTK
TAF
KPTK 281738Z 2818/2918 28009KT P6SM SCT020 BKN035
     FM282100 30009KT P6SM SCT040
     FM290100 33005KT P6SM SKC
     FM290700 VRB03KT 4SM BR SCT008
      TEMPO 2909/2912 2SM BR SCT008
     FM291300 04004KT P6SM SCT020=

USA.gov is the U.S. government's official web portal to all federal, state and local government web resources and services.